GMZ weather

La Gomera Airport
Alajero, La Gomera Island, Canary Islands, Spain

Public forecast

Using degrees Celsius for public forecast. Weather courtesy of forecast.io.

Current aviation weather report (METAR) for La Gomera Airport

Retrieved 2019/10/21 06:30 UTC (0 seconds ago):

GCGM 210630Z 35013G25KT 270V060 9999 FEW025 20/12 Q1017 RMK R09/34009KT 260V050 ARP/01011KT 330V060

Aviation forecast (TAF) for La Gomera Airport

Retrieved 2019-10-21 03:00 UTC (3 hours ago):

TAF COR GCGM 210200Z 2103/2203 VRB11G25KT 9999 SCT045 TX24/2114Z TN19/2105Z